Storm Events Database

Event Details

Event Thunderstorm Wind
Magnitude 52 kts.
State VIRGINIA
County/Area BEDFORD
WFO RNK
Begin Date 06/11/2007 19:20:00 EST-5
Begin Range 3
Begin Azimuth W
Begin Location MONETA
Begin Lat/Lon 37.18/-79.68
End Date 06/11/2007 19:20:00 EST-5
Deaths Direct/Indirect 0/0 (fatality details below, when available...)
Injuries Direct/Indirect 0/0
Property Damage 2.00K
Crop Damage 0.00K
Episode Narrative Severe thunderstorms produced wind damage and hail up to quarter sized.
Event Narrative Several large trees downed.


All events for this episode:

Location County/Zone St. Date Time T.Z. Type Mag Dth Inj PrD CrD
Totals: 0 1 68.00K 0.00K
CHARITY PATRICK CO. VA 06/11/2007 12:55 EST-5 Hail 0.75 in. 0 0 2.00K 0.00K
BASSETT HENRY CO. VA 06/11/2007 13:11 EST-5 Hail 0.88 in. 0 0 2.00K 0.00K
CENTENARY BUCKINGHAM CO. VA 06/11/2007 13:35 EST-5 Lightning 0 1 0.00K 0.00K
BUCKINGHAM BUCKINGHAM CO. VA 06/11/2007 13:40 EST-5 Hail 0.75 in. 0 0 1.00K 0.00K
DALEVILLE BOTETOURT CO. VA 06/11/2007 14:20 EST-5 Hail 0.75 in. 0 0 0.00K 0.00K
BEDFORD CITY BEDFORD (C) CO. VA 06/11/2007 14:29 EST-5 Hail 0.75 in. 0 0 1.00K 0.00K
OAKVILLE APPOMATTOX CO. VA 06/11/2007 14:39 EST-5 Hail 0.75 in. 0 0 1.00K 0.00K
GOODE BEDFORD CO. VA 06/11/2007 14:58 EST-5 Hail 0.75 in. 0 0 1.00K 0.00K
LYNCHBURG LYNCHBURG (C) CO. VA 06/11/2007 15:15 EST-5 Hail 1.00 in. 0 0 1.00K 0.00K
FOREST BEDFORD CO. VA 06/11/2007 15:16 EST-5 Hail 1.00 in. 0 0 0.00K 0.00K
CHECK FLOYD CO. VA 06/11/2007 15:19 EST-5 Hail 0.75 in. 0 0 0.00K 0.00K
LYNCHBURG ARPT CAMPBELL CO. VA 06/11/2007 15:33 EST-5 Hail 0.75 in. 0 0 0.00K 0.00K
MEADOWS OF DAN PATRICK CO. VA 06/11/2007 16:00 EST-5 Hail 0.75 in. 0 0 0.00K 0.00K
CULLEN CHARLOTTE CO. VA 06/11/2007 16:00 EST-5 Thunderstorm Wind 50 kts. EG 0 0 0.00K 0.00K
LAUREL FORK CARROLL CO. VA 06/11/2007 16:12 EST-5 Hail 1.00 in. 0 0 2.00K 0.00K
LEXINGTON ROCKBRIDGE CO. VA 06/11/2007 17:35 EST-5 Thunderstorm Wind 52 kts. EG 0 0 1.00K 0.00K
LEXINGTON LEXINGTON (C) CO. VA 06/11/2007 17:35 EST-5 Hail 0.88 in. 0 0 2.00K 0.00K
JAVA PITTSYLVANIA CO. VA 06/11/2007 18:00 EST-5 Hail 0.75 in. 0 0 0.00K 0.00K
JAVA PITTSYLVANIA CO. VA 06/11/2007 18:00 EST-5 Thunderstorm Wind 52 kts. EG 0 0 1.00K 0.00K
LEXINGTON ROCKBRIDGE CO. VA 06/11/2007 18:18 EST-5 Hail 1.00 in. 0 0 1.00K 0.00K
KEELING PITTSYLVANIA CO. VA 06/11/2007 18:27 EST-5 Hail 0.75 in. 0 0 0.00K 0.00K
NATURAL BRIDGE ROCKBRIDGE CO. VA 06/11/2007 18:35 EST-5 Hail 0.75 in. 0 0 0.00K 0.00K
BUCHANAN BOTETOURT CO. VA 06/11/2007 18:38 EST-5 Hail 0.75 in. 0 0 50.00K 0.00K
MONETA BEDFORD CO. VA 06/11/2007 19:20 EST-5 Thunderstorm Wind 52 kts. EG 0 0 2.00K 0.00K
BURNT CHIMNEY FRANKLIN CO. VA 06/11/2007 19:40 EST-5 Hail 0.75 in. 0 0 0.00K 0.00K
Totals: 0 1 68.00K 0.00K